sensor_id;sensor_type;location;lat;lon;timestamp;pressure;altitude;pressure_sealevel;temperature
23992;BMP280;12205;50.600;4.608;2023-07-13T00:00:50;100261.13;;;17.18
23992;BMP280;12205;50.600;4.608;2023-07-13T00:03:17;100261.94;;;17.15
23992;BMP280;12205;50.600;4.608;2023-07-13T00:05:44;100267.72;;;17.13
23992;BMP280;12205;50.600;4.608;2023-07-13T00:08:11;100268.53;;;17.10
23992;BMP280;12205;50.600;4.608;2023-07-13T00:10:43;100269.75;;;17.02
23992;BMP280;12205;50.600;4.608;2023-07-13T00:13:12;100271.69;;;17.01
23992;BMP280;12205;50.600;4.608;2023-07-13T00:15:39;100262.53;;;16.92
23992;BMP280;12205;50.600;4.608;2023-07-13T00:18:06;100264.53;;;16.84
23992;BMP280;12205;50.600;4.608;2023-07-13T00:20:33;100259.56;;;16.75
23992;BMP280;12205;50.600;4.608;2023-07-13T00:23:00;100267.34;;;16.66
23992;BMP280;12205;50.600;4.608;2023-07-13T00:25:28;100258.16;;;16.60
23992;BMP280;12205;50.600;4.608;2023-07-13T00:27:56;100259.38;;;16.51
23992;BMP280;12205;50.600;4.608;2023-07-13T00:30:23;100262.09;;;16.48
23992;BMP280;12205;50.600;4.608;2023-07-13T00:32:51;100251.34;;;16.44
23992;BMP280;12205;50.600;4.608;2023-07-13T00:35:19;100251.34;;;16.44
23992;BMP280;12205;50.600;4.608;2023-07-13T00:37:46;100251.34;;;16.44
23992;BMP280;12205;50.600;4.608;2023-07-13T00:40:15;100253.25;;;16.47
23992;BMP280;12205;50.600;4.608;2023-07-13T00:42:44;100253.69;;;16.42
23992;BMP280;12205;50.600;4.608;2023-07-13T00:48:36;100251.28;;;16.48
23992;BMP280;12205;50.600;4.608;2023-07-13T00:51:04;100260.91;;;16.52
23992;BMP280;12205;50.600;4.608;2023-07-13T00:53:33;100247.44;;;16.49
23992;BMP280;12205;50.600;4.608;2023-07-13T00:56:01;100249.09;;;16.36
23992;BMP280;12205;50.600;4.608;2023-07-13T00:58:29;100246.03;;;16.30
23992;BMP280;12205;50.600;4.608;2023-07-13T01:00:57;100251.47;;;16.23
23992;BMP280;12205;50.600;4.608;2023-07-13T01:03:24;100243.78;;;16.18
23992;BMP280;12205;50.600;4.608;2023-07-13T01:05:55;100249.19;;;16.18
23992;BMP280;12205;50.600;4.608;2023-07-13T01:08:22;100254.59;;;16.18
23992;BMP280;12205;50.600;4.608;2023-07-13T01:10:55;100256.88;;;16.23
23992;BMP280;12205;50.600;4.608;2023-07-13T01:13:24;100260.69;;;16.29
23992;BMP280;12205;50.600;4.608;2023-07-13T01:15:52;100266.81;;;16.33
23992;BMP280;12205;50.600;4.608;2023-07-13T01:18:24;100262.16;;;16.37
23992;BMP280;12205;50.600;4.608;2023-07-13T01:20:57;100267.22;;;16.35
23992;BMP280;12205;50.600;4.608;2023-07-13T01:23:26;100267.56;;;16.37
23992;BMP280;12205;50.600;4.608;2023-07-13T01:25:56;100268.31;;;16.41
23992;BMP280;12205;50.600;4.608;2023-07-13T01:28:25;100269.88;;;16.42
23992;BMP280;12205;50.600;4.608;2023-07-13T01:30:55;100278.31;;;16.44
23992;BMP280;12205;50.600;4.608;2023-07-13T01:33:23;100273.69;;;16.45
23992;BMP280;12205;50.600;4.608;2023-07-13T01:35:50;100275.25;;;16.46
23992;BMP280;12205;50.600;4.608;2023-07-13T01:38:22;100267.94;;;16.39
23992;BMP280;12205;50.600;4.608;2023-07-13T01:40:50;100272.19;;;16.40
23992;BMP280;12205;50.600;4.608;2023-07-13T01:43:18;100268.31;;;16.41
23992;BMP280;12205;50.600;4.608;2023-07-13T01:45:46;100271.41;;;16.40
23992;BMP280;12205;50.600;4.608;2023-07-13T01:48:13;100272.59;;;16.35
23992;BMP280;12205;50.600;4.608;2023-07-13T01:50:41;100266.81;;;16.33
23992;BMP280;12205;50.600;4.608;2023-07-13T01:53:08;100269.94;;;16.31
23992;BMP280;12205;50.600;4.608;2023-07-13T01:55:37;100264.56;;;16.28
23992;BMP280;12205;50.600;4.608;2023-07-13T01:58:05;100265.72;;;16.23
23992;BMP280;12205;50.600;4.608;2023-07-13T02:00:32;100266.19;;;16.15
23992;BMP280;12205;50.600;4.608;2023-07-13T02:03:02;100260.38;;;16.12
23992;BMP280;12205;50.600;4.608;2023-07-13T02:05:29;100256.22;;;15.97
23992;BMP280;12205;50.600;4.608;2023-07-13T02:07:56;100250.84;;;15.97
23992;BMP280;12205;50.600;4.608;2023-07-13T02:10:24;100258.16;;;15.97
23992;BMP280;12205;50.600;4.608;2023-07-13T02:12:53;100260.84;;;15.93
23992;BMP280;12205;50.600;4.608;2023-07-13T02:15:20;100264.72;;;15.92
23992;BMP280;12205;50.600;4.608;2023-07-13T02:17:47;100253.97;;;15.88
23992;BMP280;12205;50.600;4.608;2023-07-13T02:20:14;100257.41;;;15.89
23992;BMP280;12205;50.600;4.608;2023-07-13T02:22:41;100252.41;;;15.91
23992;BMP280;12205;50.600;4.608;2023-07-13T02:25:09;100247.78;;;15.91
23992;BMP280;12205;50.600;4.608;2023-07-13T02:27:36;100247.03;;;15.87
23992;BMP280;12205;50.600;4.608;2023-07-13T02:30:06;100253.97;;;15.85
23992;BMP280;12205;50.600;4.608;2023-07-13T02:32:33;100248.22;;;15.79
23992;BMP280;12205;50.600;4.608;2023-07-13T02:35:01;100237.09;;;15.73
23992;BMP280;12205;50.600;4.608;2023-07-13T02:37:28;100244.03;;;15.67
23992;BMP280;12205;50.600;4.608;2023-07-13T02:39:57;100237.16;;;15.59
23992;BMP280;12205;50.600;4.608;2023-07-13T02:42:24;100237.16;;;15.59
23992;BMP280;12205;50.600;4.608;2023-07-13T02:44:51;100238.25;;;15.65
23992;BMP280;12205;50.600;4.608;2023-07-13T02:47:19;100241.72;;;15.69
23992;BMP280;12205;50.600;4.608;2023-07-13T02:49:46;100249.44;;;15.67
23992;BMP280;12205;50.600;4.608;2023-07-13T02:52:14;100247.88;;;15.70
23992;BMP280;12205;50.600;4.608;2023-07-13T02:54:41;100246.31;;;15.72
23992;BMP280;12205;50.600;4.608;2023-07-13T02:57:08;100247.88;;;15.70
23992;BMP280;12205;50.600;4.608;2023-07-13T02:59:36;100243.63;;;15.72
23992;BMP280;12205;50.600;4.608;2023-07-13T03:02:04;100252.88;;;15.71
23992;BMP280;12205;50.600;4.608;2023-07-13T03:04:34;100245.56;;;15.72
23992;BMP280;12205;50.600;4.608;2023-07-13T03:07:03;100255.56;;;15.71
23992;BMP280;12205;50.600;4.608;2023-07-13T03:09:35;100255.56;;;15.71
23992;BMP280;12205;50.600;4.608;2023-07-13T03:12:06;100254.78;;;15.71
23992;BMP280;12205;50.600;4.608;2023-07-13T03:14:33;100260.97;;;15.71
23992;BMP280;12205;50.600;4.608;2023-07-13T03:17:04;100261.78;;;15.65
23992;BMP280;12205;50.600;4.608;2023-07-13T03:19:35;100260.22;;;15.60
23992;BMP280;12205;50.600;4.608;2023-07-13T03:22:04;100261.00;;;15.53
23992;BMP280;12205;50.600;4.608;2023-07-13T03:24:33;100252.59;;;15.37
23992;BMP280;12205;50.600;4.608;2023-07-13T03:27:03;100244.91;;;15.28
23992;BMP280;12205;50.600;4.608;2023-07-13T03:29:31;100251.06;;;15.25
23992;BMP280;12205;50.600;4.608;2023-07-13T03:31:58;100240.28;;;15.25
23992;BMP280;12205;50.600;4.608;2023-07-13T03:34:26;100246.44;;;15.26
23992;BMP280;12205;50.600;4.608;2023-07-13T03:36:55;100248.00;;;15.23
23992;BMP280;12205;50.600;4.608;2023-07-13T03:39:23;100245.72;;;15.18
23992;BMP280;12205;50.600;4.608;2023-07-13T03:41:53;100241.84;;;15.15
23992;BMP280;12205;50.600;4.608;2023-07-13T03:44:21;100234.97;;;15.11
23992;BMP280;12205;50.600;4.608;2023-07-13T03:46:53;100234.91;;;15.14
23992;BMP280;12205;50.600;4.608;2023-07-13T03:49:20;100241.06;;;15.15
23992;BMP280;12205;50.600;4.608;2023-07-13T03:51:47;100237.22;;;15.16
23992;BMP280;12205;50.600;4.608;2023-07-13T03:54:16;100240.34;;;15.18
23992;BMP280;12205;50.600;4.608;2023-07-13T03:56:44;100239.53;;;15.18
23992;BMP280;12205;50.600;4.608;2023-07-13T03:59:12;100239.53;;;15.18
23992;BMP280;12205;50.600;4.608;2023-07-13T04:01:39;100231.06;;;15.19
23992;BMP280;12205;50.600;4.608;2023-07-13T04:04:06;100231.06;;;15.19
23992;BMP280;12205;50.600;4.608;2023-07-13T04:06:34;100234.91;;;15.25
23992;BMP280;12205;50.600;4.608;2023-07-13T04:09:03;100237.97;;;15.27
23992;BMP280;12205;50.600;4.608;2023-07-13T04:11:34;100237.59;;;15.32
23992;BMP280;12205;50.600;4.608;2023-07-13T04:14:02;100240.25;;;15.40
23992;BMP280;12205;50.600;4.608;2023-07-13T04:16:29;100237.19;;;15.45
23992;BMP280;12205;50.600;4.608;2023-07-13T04:18:57;100244.84;;;15.53
23992;BMP280;12205;50.600;4.608;2023-07-13T04:21:26;100238.31;;;15.51
23992;BMP280;12205;50.600;4.608;2023-07-13T04:23:53;100236.38;;;15.55
23992;BMP280;12205;50.600;4.608;2023-07-13T04:26:21;100241.75;;;15.62
23992;BMP280;12205;50.600;4.608;2023-07-13T04:28:50;100240.94;;;15.65
23992;BMP280;12205;50.600;4.608;2023-07-13T04:31:18;100244.78;;;15.71
23992;BMP280;12205;50.600;4.608;2023-07-13T04:33:45;100251.34;;;15.70
23992;BMP280;12205;50.600;4.608;2023-07-13T04:36:12;100245.56;;;15.72
23992;BMP280;12205;50.600;4.608;2023-07-13T04:38:39;100254.00;;;15.74
23992;BMP280;12205;50.600;4.608;2023-07-13T04:41:08;100255.91;;;15.81
23992;BMP280;12205;50.600;4.608;2023-07-13T04:43:36;100262.06;;;15.85
23992;BMP280;12205;50.600;4.608;2023-07-13T04:46:07;100260.50;;;15.84
23992;BMP280;12205;50.600;4.608;2023-07-13T04:48:34;100259.34;;;15.88
23992;BMP280;12205;50.600;4.608;2023-07-13T04:51:02;100268.56;;;15.94
23992;BMP280;12205;50.600;4.608;2023-07-13T04:53:30;100265.50;;;15.92
23992;BMP280;12205;50.600;4.608;2023-07-13T04:55:58;100273.16;;;16.01
23992;BMP280;12205;50.600;4.608;2023-07-13T04:58:25;100272.34;;;16.04
23992;BMP280;12205;50.600;4.608;2023-07-13T05:00:53;100285.47;;;16.09
23992;BMP280;12205;50.600;4.608;2023-07-13T05:03:27;100283.09;;;16.19
23992;BMP280;12205;50.600;4.608;2023-07-13T05:05:59;100293.44;;;16.31
23992;BMP280;12205;50.600;4.608;2023-07-13T05:08:27;100286.03;;;16.39
23992;BMP280;12205;50.600;4.608;2023-07-13T05:10:54;100294.50;;;16.44
23992;BMP280;12205;50.600;4.608;2023-07-13T05:13:22;100299.06;;;16.55
23992;BMP280;12205;50.600;4.608;2023-07-13T05:15:56;100297.88;;;16.63
23992;BMP280;12205;50.600;4.608;2023-07-13T05:18:24;100315.94;;;16.66
23992;BMP280;12205;50.600;4.608;2023-07-13T05:21:02;100309.72;;;16.76
23992;BMP280;12205;50.600;4.608;2023-07-13T05:23:31;100312.38;;;16.83
23992;BMP280;12205;50.600;4.608;2023-07-13T05:25:58;100321.63;;;16.82
23992;BMP280;12205;50.600;4.608;2023-07-13T05:28:27;100318.09;;;16.89
23992;BMP280;12205;50.600;4.608;2023-07-13T05:30:54;100316.47;;;16.99
23992;BMP280;12205;50.600;4.608;2023-07-13T05:33:22;100326.59;;;16.87
23992;BMP280;12205;50.600;4.608;2023-07-13T05:35:49;100328.50;;;16.90
23992;BMP280;12205;50.600;4.608;2023-07-13T05:38:18;100330.41;;;16.94
23992;BMP280;12205;50.600;4.608;2023-07-13T05:40:45;100323.47;;;16.93
23992;BMP280;12205;50.600;4.608;2023-07-13T05:43:13;100335.81;;;16.94
23992;BMP280;12205;50.600;4.608;2023-07-13T05:45:41;100326.88;;;17.04
23992;BMP280;12205;50.600;4.608;2023-07-13T05:48:08;100332.59;;;17.06
23992;BMP280;12205;50.600;4.608;2023-07-13T05:50:35;100343.41;;;17.09
23992;BMP280;12205;50.600;4.608;2023-07-13T05:53:02;100343.34;;;17.13
23992;BMP280;12205;50.600;4.608;2023-07-13T05:55:30;100348.72;;;17.20
23992;BMP280;12205;50.600;4.608;2023-07-13T05:57:58;100342.50;;;17.23
23992;BMP280;12205;50.600;4.608;2023-07-13T06:00:26;100354.03;;;17.31
23992;BMP280;12205;50.600;4.608;2023-07-13T06:02:53;100360.91;;;17.39
23992;BMP280;12205;50.600;4.608;2023-07-13T06:05:20;100353.16;;;17.38
23992;BMP280;12205;50.600;4.608;2023-07-13T06:07:47;100352.41;;;17.41
23992;BMP280;12205;50.600;4.608;2023-07-13T06:10:14;100367.00;;;17.47
23992;BMP280;12205;50.600;4.608;2023-07-13T06:12:43;100370.44;;;17.51
23992;BMP280;12205;50.600;4.608;2023-07-13T06:15:11;100377.00;;;17.50
23992;BMP280;12205;50.600;4.608;2023-07-13T06:17:38;100385.41;;;17.59
23992;BMP280;12205;50.600;4.608;2023-07-13T06:20:07;100379.94;;;17.66
23992;BMP280;12205;50.600;4.608;2023-07-13T06:22:34;100382.94;;;17.72
23992;BMP280;12205;50.600;4.608;2023-07-13T06:25:01;100391.47;;;17.71
23992;BMP280;12205;50.600;4.608;2023-07-13T06:27:28;100394.84;;;17.82
23992;BMP280;12205;50.600;4.608;2023-07-13T06:29:57;100391.38;;;17.78
23992;BMP280;12205;50.600;4.608;2023-07-13T06:32:24;100396.78;;;17.78
23992;BMP280;12205;50.600;4.608;2023-07-13T06:34:51;100397.47;;;17.89
23992;BMP280;12205;50.600;4.608;2023-07-13T06:37:18;100400.53;;;17.91
23992;BMP280;12205;50.600;4.608;2023-07-13T06:39:45;100399.72;;;17.94
23992;BMP280;12205;50.600;4.608;2023-07-13T06:42:12;100394.25;;;18.01
23992;BMP280;12205;50.600;4.608;2023-07-13T06:44:39;100403.41;;;18.11
23992;BMP280;12205;50.600;4.608;2023-07-13T06:47:08;100402.06;;;18.23
23992;BMP280;12205;50.600;4.608;2023-07-13T06:49:35;100406.97;;;18.35
23992;BMP280;12205;50.600;4.608;2023-07-13T06:52:03;100410.84;;;18.34
23992;BMP280;12205;50.600;4.608;2023-07-13T06:54:30;100405.28;;;18.45
23992;BMP280;12205;50.600;4.608;2023-07-13T06:56:57;100409.72;;;18.59
23992;BMP280;12205;50.600;4.608;2023-07-13T06:59:24;100418.91;;;18.65
23992;BMP280;12205;50.600;4.608;2023-07-13T07:01:51;100416.41;;;18.78
23992;BMP280;12205;50.600;4.608;2023-07-13T07:04:20;100426.50;;;18.77
23992;BMP280;12205;50.600;4.608;2023-07-13T07:06:47;100420.97;;;18.84
23992;BMP280;12205;50.600;4.608;2023-07-13T07:09:14;100422.91;;;18.84
23992;BMP280;12205;50.600;4.608;2023-07-13T07:11:42;100427.03;;;18.69
23992;BMP280;12205;50.600;4.608;2023-07-13T07:14:09;100423.34;;;18.82
23992;BMP280;12205;50.600;4.608;2023-07-13T07:16:36;100432.19;;;18.86
23992;BMP280;12205;50.600;4.608;2023-07-13T07:19:03;100432.97;;;18.83
23992;BMP280;12205;50.600;4.608;2023-07-13T07:21:31;100432.50;;;18.89
23992;BMP280;12205;50.600;4.608;2023-07-13T07:23:59;100436.81;;;19.10
23992;BMP280;12205;50.600;4.608;2023-07-13T07:26:26;100439.63;;;19.30
23992;BMP280;12205;50.600;4.608;2023-07-13T07:28:53;100443.97;;;19.47
23992;BMP280;12205;50.600;4.608;2023-07-13T07:31:20;100435.81;;;19.71
23992;BMP280;12205;50.600;4.608;2023-07-13T07:33:47;100434.69;;;19.88
23992;BMP280;12205;50.600;4.608;2023-07-13T07:36:15;100434.41;;;19.82
23992;BMP280;12205;50.600;4.608;2023-07-13T07:38:45;100441.56;;;19.73
23992;BMP280;12205;50.600;4.608;2023-07-13T07:41:13;100455.38;;;19.58
23992;BMP280;12205;50.600;4.608;2023-07-13T07:43:40;100448.22;;;19.48
23992;BMP280;12205;50.600;4.608;2023-07-13T07:46:07;100453.44;;;19.35
23992;BMP280;12205;50.600;4.608;2023-07-13T07:48:34;100446.56;;;19.31
23992;BMP280;12205;50.600;4.608;2023-07-13T07:51:01;100448.88;;;19.32
23992;BMP280;12205;50.600;4.608;2023-07-13T07:53:28;100454.09;;;19.19
23992;BMP280;12205;50.600;4.608;2023-07-13T07:55:57;100456.00;;;19.22
23992;BMP280;12205;50.600;4.608;2023-07-13T07:58:24;100467.53;;;19.26
23992;BMP280;12205;50.600;4.608;2023-07-13T08:00:51;100465.19;;;19.29
23992;BMP280;12205;50.600;4.608;2023-07-13T08:03:18;100459.78;;;19.29
23992;BMP280;12205;50.600;4.608;2023-07-13T08:05:45;100469.72;;;19.35
23992;BMP280;12205;50.600;4.608;2023-07-13T08:08:12;100460.56;;;19.49
23992;BMP280;12205;50.600;4.608;2023-07-13T08:10:40;100467.31;;;19.41
23992;BMP280;12205;50.600;4.608;2023-07-13T08:13:08;100464.97;;;19.43
23992;BMP280;12205;50.600;4.608;2023-07-13T08:15:36;100453.84;;;19.57
23992;BMP280;12205;50.600;4.608;2023-07-13T08:18:03;100464.09;;;19.70
23992;BMP280;12205;50.600;4.608;2023-07-13T08:20:30;100466.44;;;19.48
23992;BMP280;12205;50.600;4.608;2023-07-13T08:22:57;100458.25;;;19.71
23992;BMP280;12205;50.600;4.608;2023-07-13T08:25:24;100465.63;;;19.91
23992;BMP280;12205;50.600;4.608;2023-07-13T08:27:51;100457.38;;;19.78
23992;BMP280;12205;50.600;4.608;2023-07-13T08:30:20;100465.34;;;19.65
23992;BMP280;12205;50.600;4.608;2023-07-13T08:32:47;100474.44;;;19.55
23992;BMP280;12205;50.600;4.608;2023-07-13T08:35:15;100466.38;;;19.51
23992;BMP280;12205;50.600;4.608;2023-07-13T08:37:42;100467.19;;;19.48
23992;BMP280;12205;50.600;4.608;2023-07-13T08:40:11;100472.97;;;19.50
23992;BMP280;12205;50.600;4.608;2023-07-13T08:42:44;100469.97;;;19.44
23992;BMP280;12205;50.600;4.608;2023-07-13T08:45:22;100476.09;;;19.49
23992;BMP280;12205;50.600;4.608;2023-07-13T08:47:54;100471.81;;;19.51
23992;BMP280;12205;50.600;4.608;2023-07-13T08:50:27;100473.91;;;19.63
23992;BMP280;12205;50.600;4.608;2023-07-13T08:52:57;100468.91;;;19.82
23992;BMP280;12205;50.600;4.608;2023-07-13T08:55:30;100466.41;;;19.91
23992;BMP280;12205;50.600;4.608;2023-07-13T08:58:09;100471.34;;;19.96
23992;BMP280;12205;50.600;4.608;2023-07-13T09:00:49;100465.16;;;20.16
23992;BMP280;12205;50.600;4.608;2023-07-13T09:03:23;100467.38;;;20.21
23992;BMP280;12205;50.600;4.608;2023-07-13T09:05:56;100465.78;;;20.23
23992;BMP280;12205;50.600;4.608;2023-07-13T09:08:39;100472.00;;;20.40
23992;BMP280;12205;50.600;4.608;2023-07-13T09:11:29;100467.47;;;20.54
23992;BMP280;12205;50.600;4.608;2023-07-13T09:14:06;100475.78;;;20.63
23992;BMP280;12205;50.600;4.608;2023-07-13T09:16:45;100467.84;;;20.72
23992;BMP280;12205;50.600;4.608;2023-07-13T09:19:19;100472.25;;;20.82
23992;BMP280;12205;50.600;4.608;2023-07-13T09:21:50;100480.06;;;20.80
23992;BMP280;12205;50.600;4.608;2023-07-13T09:24:41;100467.09;;;21.04
23992;BMP280;12205;50.600;4.608;2023-07-13T09:27:17;100468.34;;;21.16
23992;BMP280;12205;50.600;4.608;2023-07-13T09:29:51;100475.16;;;21.24
23992;BMP280;12205;50.600;4.608;2023-07-13T09:32:26;100478.03;;;21.17
23992;BMP280;12205;50.600;4.608;2023-07-13T09:34:55;100478.84;;;21.31
23992;BMP280;12205;50.600;4.608;2023-07-13T09:37:29;100486.41;;;21.39
23992;BMP280;12205;50.600;4.608;2023-07-13T09:40:01;100485.63;;;21.39
23992;BMP280;12205;50.600;4.608;2023-07-13T09:42:32;100482.25;;;21.18
23992;BMP280;12205;50.600;4.608;2023-07-13T09:45:01;100487.53;;;21.25
23992;BMP280;12205;50.600;4.608;2023-07-13T09:47:33;100482.94;;;21.22
23992;BMP280;12205;50.600;4.608;2023-07-13T09:50:10;100495.53;;;21.16
23992;BMP280;12205;50.600;4.608;2023-07-13T09:52:45;100475.81;;;21.29
23992;BMP280;12205;50.600;4.608;2023-07-13T09:55:25;100494.00;;;21.15
23992;BMP280;12205;50.600;4.608;2023-07-13T09:57:53;100491.69;;;21.14
23992;BMP280;12205;50.600;4.608;2023-07-13T10:00:27;100501.81;;;21.13
23992;BMP280;12205;50.600;4.608;2023-07-13T10:03:05;100507.59;;;21.15
23992;BMP280;12205;50.600;4.608;2023-07-13T10:05:43;100504.88;;;21.15
23992;BMP280;12205;50.600;4.608;2023-07-13T10:08:24;100495.69;;;21.25
23992;BMP280;12205;50.600;4.608;2023-07-13T10:10:59;100500.59;;;21.47
23992;BMP280;12205;50.600;4.608;2023-07-13T10:13:34;100505.09;;;21.54
23992;BMP280;12205;50.600;4.608;2023-07-13T10:16:04;100502.31;;;21.41
23992;BMP280;12205;50.600;4.608;2023-07-13T10:18:41;100508.25;;;21.52
23992;BMP280;12205;50.600;4.608;2023-07-13T10:21:14;100508.56;;;21.54
23992;BMP280;12205;50.600;4.608;2023-07-13T10:23:43;100516.56;;;21.61
23992;BMP280;12205;50.600;4.608;2023-07-13T10:26:18;100514.53;;;21.65
23992;BMP280;12205;50.600;4.608;2023-07-13T10:28:52;100510.22;;;21.81
23992;BMP280;12205;50.600;4.608;2023-07-13T10:31:23;100522.78;;;21.91
23992;BMP280;12205;50.600;4.608;2023-07-13T10:33:52;100519.84;;;21.98
23992;BMP280;12205;50.600;4.608;2023-07-13T10:36:32;100517.34;;;22.04
23992;BMP280;12205;50.600;4.608;2023-07-13T10:39:04;100517.75;;;21.90
23992;BMP280;12205;50.600;4.608;2023-07-13T10:41:38;100523.44;;;21.95
23992;BMP280;12205;50.600;4.608;2023-07-13T10:44:16;100516.88;;;21.93
23992;BMP280;12205;50.600;4.608;2023-07-13T10:46:46;100527.53;;;21.87
23992;BMP280;12205;50.600;4.608;2023-07-13T10:49:15;100528.06;;;21.82
23992;BMP280;12205;50.600;4.608;2023-07-13T10:51:43;100527.06;;;21.76
23992;BMP280;12205;50.600;4.608;2023-07-13T10:54:26;100533.94;;;21.80
23992;BMP280;12205;50.600;4.608;2023-07-13T10:57:14;100525.66;;;21.84
23992;BMP280;12205;50.600;4.608;2023-07-13T10:59:46;100519.56;;;21.80
23992;BMP280;12205;50.600;4.608;2023-07-13T11:02:25;100518.81;;;21.79
23992;BMP280;12205;50.600;4.608;2023-07-13T11:04:55;100535.34;;;22.01
23992;BMP280;12205;50.600;4.608;2023-07-13T11:07:26;100512.28;;;22.19
23992;BMP280;12205;50.600;4.608;2023-07-13T11:09:56;100512.47;;;22.12
23992;BMP280;12205;50.600;4.608;2023-07-13T11:12:50;100494.81;;;22.03
23992;BMP280;12205;50.600;4.608;2023-07-13T11:15:33;100514.75;;;22.13
23992;BMP280;12205;50.600;4.608;2023-07-13T11:18:22;100502.28;;;22.41
23992;BMP280;12205;50.600;4.608;2023-07-13T11:21:12;100500.31;;;22.55
23992;BMP280;12205;50.600;4.608;2023-07-13T11:23:43;100504.88;;;22.83
23992;BMP280;12205;50.600;4.608;2023-07-13T11:26:39;100506.81;;;22.96
23992;BMP280;12205;50.600;4.608;2023-07-13T11:29:12;100508.59;;;22.89
23992;BMP280;12205;50.600;4.608;2023-07-13T11:31:53;100516.22;;;22.82
23992;BMP280;12205;50.600;4.608;2023-07-13T11:34:27;100490.28;;;22.77
23992;BMP280;12205;50.600;4.608;2023-07-13T11:36:59;100495.50;;;22.84
23992;BMP280;12205;50.600;4.608;2023-07-13T11:39:31;100497.22;;;23.04
23992;BMP280;12205;50.600;4.608;2023-07-13T11:42:02;100513.31;;;23.11
23992;BMP280;12205;50.600;4.608;2023-07-13T11:44:33;100513.59;;;23.39
23992;BMP280;12205;50.600;4.608;2023-07-13T11:47:10;100510.09;;;23.38
23992;BMP280;12205;50.600;4.608;2023-07-13T11:49:44;100499.34;;;23.57
23992;BMP280;12205;50.600;4.608;2023-07-13T11:52:17;100511.19;;;23.85
23992;BMP280;12205;50.600;4.608;2023-07-13T11:54:49;100508.41;;;24.07
23992;BMP280;12205;50.600;4.608;2023-07-13T11:57:26;100519.97;;;24.11
23992;BMP280;12205;50.600;4.608;2023-07-13T11:59:55;100494.03;;;24.06
23992;BMP280;12205;50.600;4.608;2023-07-13T12:02:29;100499.00;;;23.99
23992;BMP280;12205;50.600;4.608;2023-07-13T12:05:00;100508.44;;;23.85
23992;BMP280;12205;50.600;4.608;2023-07-13T12:07:32;100492.44;;;23.96
23992;BMP280;12205;50.600;4.608;2023-07-13T12:10:01;100503.06;;;24.25
23992;BMP280;12205;50.600;4.608;2023-07-13T12:12:29;100505.03;;;24.25
23992;BMP280;12205;50.600;4.608;2023-07-13T12:14:57;100495.53;;;24.07
23992;BMP280;12205;50.600;4.608;2023-07-13T12:17:25;100502.09;;;24.50
23992;BMP280;12205;50.600;4.608;2023-07-13T12:19:53;100495.31;;;24.83
23992;BMP280;12205;50.600;4.608;2023-07-13T12:22:21;100514.22;;;25.17
23992;BMP280;12205;50.600;4.608;2023-07-13T12:24:52;100502.19;;;25.52
23992;BMP280;12205;50.600;4.608;2023-07-13T12:27:23;100498.78;;;25.75
23992;BMP280;12205;50.600;4.608;2023-07-13T12:29:52;100493.59;;;25.87
23992;BMP280;12205;50.600;4.608;2023-07-13T12:32:20;100492.75;;;26.05
23992;BMP280;12205;50.600;4.608;2023-07-13T12:34:53;100481.66;;;26.32
23992;BMP280;12205;50.600;4.608;2023-07-13T12:37:22;100497.97;;;26.60
23992;BMP280;12205;50.600;4.608;2023-07-13T12:39:52;100493.66;;;26.35
23992;BMP280;12205;50.600;4.608;2023-07-13T12:42:23;100498.94;;;26.14
23992;BMP280;12205;50.600;4.608;2023-07-13T12:44:56;100487.66;;;26.21
23992;BMP280;12205;50.600;4.608;2023-07-13T12:47:24;100503.13;;;26.34
23992;BMP280;12205;50.600;4.608;2023-07-13T12:49:56;100493.09;;;26.31
23992;BMP280;12205;50.600;4.608;2023-07-13T12:52:30;100490.91;;;26.44
23992;BMP280;12205;50.600;4.608;2023-07-13T12:55:15;100500.28;;;25.86
23992;BMP280;12205;50.600;4.608;2023-07-13T12:57:50;100488.72;;;25.82
23992;BMP280;12205;50.600;4.608;2023-07-13T13:00:29;100488.72;;;25.82
23992;BMP280;12205;50.600;4.608;2023-07-13T13:03:04;100492.84;;;25.77
23992;BMP280;12205;50.600;4.608;2023-07-13T13:05:33;100487.69;;;25.79
23992;BMP280;12205;50.600;4.608;2023-07-13T13:08:00;100475.63;;;25.86
23992;BMP280;12205;50.600;4.608;2023-07-13T13:10:29;100487.03;;;25.93
23992;BMP280;12205;50.600;4.608;2023-07-13T13:12:56;100497.25;;;25.84
23992;BMP280;12205;50.600;4.608;2023-07-13T13:15:23;100492.41;;;25.69
23992;BMP280;12205;50.600;4.608;2023-07-13T13:17:50;100486.03;;;25.54
23992;BMP280;12205;50.600;4.608;2023-07-13T13:20:20;100487.56;;;25.55
23992;BMP280;12205;50.600;4.608;2023-07-13T13:22:48;100492.31;;;25.45
23992;BMP280;12205;50.600;4.608;2023-07-13T13:25:15;100485.16;;;25.29
23992;BMP280;12205;50.600;4.608;2023-07-13T13:27:46;100503.69;;;25.25
23992;BMP280;12205;50.600;4.608;2023-07-13T13:30:16;100488.22;;;25.04
23992;BMP280;12205;50.600;4.608;2023-07-13T13:32:46;100483.34;;;25.08
23992;BMP280;12205;50.600;4.608;2023-07-13T13:35:15;100488.22;;;25.04
23992;BMP280;12205;50.600;4.608;2023-07-13T13:37:43;100487.91;;;25.11
23992;BMP280;12205;50.600;4.608;2023-07-13T13:40:16;100497.94;;;25.14
23992;BMP280;12205;50.600;4.608;2023-07-13T13:42:45;100507.53;;;25.09
23992;BMP280;12205;50.600;4.608;2023-07-13T13:45:13;100503.41;;;24.95
23992;BMP280;12205;50.600;4.608;2023-07-13T13:47:42;100500.50;;;24.90
23992;BMP280;12205;50.600;4.608;2023-07-13T13:50:13;100505.94;;;24.71
23992;BMP280;12205;50.600;4.608;2023-07-13T13:52:41;100503.09;;;24.84
23992;BMP280;12205;50.600;4.608;2023-07-13T13:55:20;100494.91;;;25.12
23992;BMP280;12205;50.600;4.608;2023-07-13T13:57:51;100510.41;;;25.15
23992;BMP280;12205;50.600;4.608;2023-07-13T14:00:20;100497.94;;;25.32
23992;BMP280;12205;50.600;4.608;2023-07-13T14:02:49;100496.13;;;25.38
23992;BMP280;12205;50.600;4.608;2023-07-13T14:05:23;100498.53;;;25.55
23992;BMP280;12205;50.600;4.608;2023-07-13T14:07:51;100501.41;;;25.61
23992;BMP280;12205;50.600;4.608;2023-07-13T14:10:21;100499.38;;;25.89
23992;BMP280;12205;50.600;4.608;2023-07-13T14:12:53;100509.31;;;26.10
23992;BMP280;12205;50.600;4.608;2023-07-13T14:15:25;100508.03;;;26.30